createdAt,value
2023-01-06T00:00:03.181Z,0.00
2023-01-06T00:01:03.571Z,0.00
2023-01-06T00:02:03.960Z,0.00
2023-01-06T00:03:04.282Z,0.00
2023-01-06T00:04:04.622Z,0.00
2023-01-06T00:05:04.984Z,0.00
2023-01-06T00:06:05.338Z,0.00
2023-01-06T00:07:05.659Z,0.00
2023-01-06T00:08:06.035Z,0.00
2023-01-06T00:09:06.362Z,0.00
2023-01-06T00:10:06.748Z,0.00
2023-01-06T00:11:07.094Z,0.00
2023-01-06T00:12:07.477Z,0.00
2023-01-06T00:13:07.843Z,0.00
2023-01-06T00:14:08.204Z,0.00
2023-01-06T00:15:08.554Z,0.00
2023-01-06T00:16:09.036Z,0.00
2023-01-06T00:17:09.303Z,0.00
2023-01-06T00:18:09.631Z,0.00
2023-01-06T00:19:09.975Z,0.00
2023-01-06T00:20:10.330Z,0.00
2023-01-06T00:21:10.721Z,0.00
2023-01-06T00:22:11.052Z,0.00
2023-01-06T00:23:11.390Z,0.00
2023-01-06T00:24:11.744Z,0.00
2023-01-06T00:25:12.114Z,0.00
2023-01-06T00:26:12.492Z,0.00
2023-01-06T00:27:12.924Z,0.00
2023-01-06T00:28:13.177Z,0.00
2023-01-06T00:29:13.539Z,0.00
2023-01-06T00:30:13.897Z,0.00
2023-01-06T00:31:14.306Z,0.00
2023-01-06T00:32:14.606Z,0.00
2023-01-06T00:33:14.991Z,0.00
2023-01-06T00:34:15.320Z,0.00
2023-01-06T00:35:15.677Z,0.00
2023-01-06T00:36:16.054Z,0.00
2023-01-06T00:37:16.382Z,0.00
2023-01-06T00:38:16.752Z,0.00
2023-01-06T00:39:17.101Z,0.00
2023-01-06T00:40:17.458Z,0.00
2023-01-06T00:41:17.825Z,0.00
2023-01-06T00:42:18.208Z,0.00
2023-01-06T00:43:18.604Z,0.00
2023-01-06T00:44:18.918Z,0.00
2023-01-06T00:45:19.312Z,0.00
2023-01-06T00:46:19.698Z,0.00
2023-01-06T00:47:19.999Z,0.00
2023-01-06T00:48:20.376Z,0.00
2023-01-06T00:49:20.710Z,0.00
2023-01-06T00:50:21.032Z,0.00
2023-01-06T00:51:21.395Z,0.00
2023-01-06T00:52:21.766Z,0.00
2023-01-06T00:53:22.171Z,0.00
2023-01-06T00:54:22.495Z,0.00
2023-01-06T00:55:22.924Z,0.00
2023-01-06T00:56:23.208Z,0.00
2023-01-06T00:57:23.600Z,0.00
2023-01-06T00:58:23.942Z,0.00
2023-01-06T00:59:24.268Z,0.00
2023-01-06T01:00:24.625Z,0.00
2023-01-06T01:01:25.104Z,0.00
2023-01-06T01:02:25.519Z,0.00
2023-01-06T01:03:25.703Z,0.00
2023-01-06T01:04:26.016Z,0.00
2023-01-06T01:05:26.406Z,0.00
2023-01-06T01:06:26.750Z,0.00
2023-01-06T01:07:27.092Z,0.00
2023-01-06T01:08:27.452Z,0.00
2023-01-06T01:09:27.774Z,0.00
2023-01-06T01:10:28.129Z,0.00
2023-01-06T01:11:28.484Z,0.00
2023-01-06T01:12:28.875Z,0.00
2023-01-06T01:13:29.204Z,0.00
2023-01-06T01:14:29.519Z,0.00
2023-01-06T01:15:29.926Z,0.00
2023-01-06T01:16:30.232Z,0.00
2023-01-06T01:17:30.637Z,0.00
2023-01-06T01:18:30.992Z,0.00
2023-01-06T01:19:31.299Z,0.00
2023-01-06T01:20:31.654Z,0.00
2023-01-06T01:21:32.021Z,0.00
2023-01-06T01:22:32.388Z,0.00
2023-01-06T01:23:32.779Z,0.00
2023-01-06T01:24:33.102Z,0.00
2023-01-06T01:25:33.474Z,0.00
2023-01-06T01:26:33.829Z,0.00
2023-01-06T01:27:34.251Z,0.00
2023-01-06T01:28:34.587Z,0.00
2023-01-06T01:29:34.914Z,0.00
2023-01-06T01:30:35.284Z,0.00
2023-01-06T01:31:35.651Z,0.00
2023-01-06T01:32:35.988Z,0.00
2023-01-06T01:33:36.383Z,0.00
2023-01-06T01:34:36.756Z,0.00
2023-01-06T01:35:37.068Z,0.00
2023-01-06T01:36:37.446Z,0.00
2023-01-06T01:37:37.829Z,0.00
2023-01-06T01:38:38.175Z,0.00
2023-01-06T01:39:38.555Z,0.00
2023-01-06T01:40:38.901Z,0.00
2023-01-06T01:41:39.263Z,0.00
2023-01-06T01:42:39.623Z,0.00
2023-01-06T01:43:40.023Z,0.00
2023-01-06T01:44:40.349Z,0.00
2023-01-06T01:45:40.722Z,0.00
2023-01-06T01:46:41.167Z,0.00
2023-01-06T01:47:41.418Z,0.00
2023-01-06T01:48:41.790Z,0.00
2023-01-06T01:49:42.110Z,0.00
2023-01-06T01:50:42.548Z,0.00
2023-01-06T01:51:42.845Z,0.00
2023-01-06T01:52:43.162Z,0.00
2023-01-06T01:53:43.586Z,0.00
2023-01-06T01:54:43.884Z,0.00
2023-01-06T01:55:44.228Z,0.00
2023-01-06T01:56:44.596Z,0.00
2023-01-06T01:57:44.910Z,0.00
2023-01-06T01:58:45.305Z,0.00
2023-01-06T01:59:45.643Z,0.00
2023-01-06T02:00:46.004Z,0.00
2023-01-06T02:01:46.517Z,0.00
2023-01-06T02:02:46.785Z,0.00
2023-01-06T02:03:47.090Z,0.00
2023-01-06T02:04:47.417Z,0.00
2023-01-06T02:05:47.817Z,0.00
2023-01-06T02:06:48.131Z,0.00
2023-01-06T02:07:48.494Z,0.00
2023-01-06T02:08:48.898Z,0.00
2023-01-06T02:09:49.207Z,0.00
2023-01-06T02:10:49.615Z,0.00
2023-01-06T02:11:49.938Z,0.00
2023-01-06T02:12:50.316Z,0.00
2023-01-06T02:13:50.724Z,0.00
2023-01-06T02:14:51.037Z,0.00
2023-01-06T02:15:51.491Z,0.00
2023-01-06T02:16:51.782Z,0.00
2023-01-06T02:17:52.145Z,0.00
2023-01-06T02:18:52.503Z,0.00
2023-01-06T02:19:52.869Z,0.00
2023-01-06T02:20:53.336Z,0.00
2023-01-06T02:21:53.586Z,0.00
2023-01-06T02:22:53.943Z,0.00
2023-01-06T02:23:54.328Z,0.00
2023-01-06T02:24:54.649Z,0.00
2023-01-06T02:25:55.032Z,0.00
2023-01-06T02:26:55.365Z,0.00
2023-01-06T02:27:55.730Z,0.00
2023-01-06T02:28:56.108Z,0.00
2023-01-06T02:29:56.427Z,0.00
2023-01-06T02:30:56.794Z,0.00
2023-01-06T02:31:57.131Z,0.00
2023-01-06T02:32:57.494Z,0.00
2023-01-06T02:33:57.867Z,0.00
2023-01-06T02:34:58.193Z,0.00
2023-01-06T02:35:58.572Z,0.00
2023-01-06T02:36:58.895Z,0.00
2023-01-06T02:37:59.294Z,0.00
2023-01-06T02:38:59.625Z,0.00
2023-01-06T02:39:59.959Z,0.00
2023-01-06T02:41:00.316Z,0.00
2023-01-06T02:42:00.675Z,0.00
2023-01-06T02:43:01.049Z,0.00
2023-01-06T02:44:01.428Z,0.00
2023-01-06T02:45:01.774Z,0.00
2023-01-06T02:46:02.165Z,0.00
2023-01-06T02:47:02.475Z,0.00
2023-01-06T02:48:02.818Z,0.00
2023-01-06T02:49:03.203Z,0.00
2023-01-06T02:50:03.528Z,0.00
2023-01-06T02:51:03.932Z,0.00
2023-01-06T02:52:04.251Z,0.00
2023-01-06T02:53:04.629Z,0.00
2023-01-06T02:54:05.019Z,0.00
2023-01-06T02:55:05.316Z,0.00
2023-01-06T02:56:05.658Z,0.00
2023-01-06T02:57:06.036Z,0.00
2023-01-06T02:58:06.365Z,0.00
2023-01-06T02:59:06.760Z,0.00
2023-01-06T03:00:07.075Z,0.00
2023-01-06T03:01:07.504Z,0.00
2023-01-06T03:02:07.991Z,0.00
2023-01-06T03:03:08.152Z,0.00
2023-01-06T03:04:08.537Z,0.00
2023-01-06T03:05:08.897Z,0.00
2023-01-06T03:06:09.295Z,0.00
2023-01-06T03:07:09.642Z,0.00
2023-01-06T03:08:09.968Z,0.00
2023-01-06T03:09:10.343Z,0.00
2023-01-06T03:10:10.700Z,0.00
2023-01-06T03:11:11.048Z,0.00
2023-01-06T03:12:11.435Z,0.00
2023-01-06T03:13:11.784Z,0.00
2023-01-06T03:14:12.169Z,0.00
2023-01-06T03:15:12.522Z,0.00
2023-01-06T03:16:12.987Z,0.00
2023-01-06T03:17:13.259Z,0.00
2023-01-06T03:18:13.633Z,0.00
2023-01-06T03:19:13.987Z,0.00
2023-01-06T03:20:14.320Z,0.00
2023-01-06T03:21:14.658Z,0.00
2023-01-06T03:22:15.020Z,0.00
2023-01-06T03:23:15.384Z,0.00
2023-01-06T03:24:15.778Z,0.00
2023-01-06T03:25:16.103Z,0.00
2023-01-06T03:26:16.459Z,0.00
2023-01-06T03:27:16.821Z,0.00
2023-01-06T03:28:17.188Z,0.00
2023-01-06T03:29:17.559Z,0.00
2023-01-06T03:30:17.885Z,0.00
2023-01-06T03:31:18.313Z,0.00
2023-01-06T03:32:18.621Z,0.00
2023-01-06T03:33:19.003Z,0.00
2023-01-06T03:34:19.342Z,0.00
2023-01-06T03:35:19.664Z,0.00
2023-01-06T03:36:20.024Z,0.00
2023-01-06T03:37:20.388Z,0.00
2023-01-06T03:38:20.794Z,0.00
2023-01-06T03:39:21.127Z,0.00
2023-01-06T03:40:21.489Z,0.00
2023-01-06T03:41:21.854Z,0.00
2023-01-06T03:42:35.672Z,0.00
2023-01-06T03:43:22.590Z,0.00
2023-01-06T03:44:22.966Z,0.00
2023-01-06T03:45:23.319Z,0.00
2023-01-06T03:46:23.799Z,0.00
2023-01-06T03:47:24.010Z,0.00
2023-01-06T03:48:24.371Z,0.00
2023-01-06T03:49:24.780Z,0.00
2023-01-06T03:50:25.112Z,0.00
2023-01-06T03:51:25.475Z,0.00
2023-01-06T03:52:25.833Z,0.00
2023-01-06T03:53:26.209Z,0.00
2023-01-06T03:54:26.619Z,0.00
2023-01-06T03:55:26.936Z,0.00
2023-01-06T03:56:27.298Z,0.00
2023-01-06T03:57:27.670Z,0.00
2023-01-06T03:58:28.032Z,0.00
2023-01-06T03:59:28.409Z,0.00
2023-01-06T04:00:28.756Z,0.00
2023-01-06T04:01:29.125Z,0.00
2023-01-06T04:02:29.454Z,0.00
2023-01-06T04:03:29.877Z,0.00
2023-01-06T04:04:30.203Z,0.00
2023-01-06T04:05:30.563Z,0.00
2023-01-06T04:06:30.929Z,0.00
2023-01-06T04:07:31.285Z,0.00
2023-01-06T04:08:31.659Z,0.00
2023-01-06T04:09:32.029Z,0.00
2023-01-06T04:10:32.386Z,0.00
2023-01-06T04:11:32.759Z,0.00
2023-01-06T04:12:33.075Z,0.00
2023-01-06T04:13:33.434Z,0.00
2023-01-06T04:14:33.820Z,0.00
2023-01-06T04:15:34.142Z,0.00
2023-01-06T04:16:34.642Z,0.00
2023-01-06T04:17:34.841Z,0.00
2023-01-06T04:18:35.206Z,0.00
2023-01-06T04:19:35.608Z,0.00
2023-01-06T04:20:35.930Z,0.00
2023-01-06T04:21:36.287Z,0.00
2023-01-06T04:22:36.641Z,0.00
2023-01-06T04:23:37.026Z,0.00
2023-01-06T04:24:37.372Z,0.00
2023-01-06T04:25:37.698Z,0.00
2023-01-06T04:26:38.054Z,0.00
2023-01-06T04:27:38.418Z,0.00
2023-01-06T04:28:38.805Z,0.00
2023-01-06T04:29:39.132Z,0.00
2023-01-06T04:30:39.448Z,0.00
2023-01-06T04:31:39.877Z,0.00
2023-01-06T04:32:40.182Z,0.00
2023-01-06T04:33:40.545Z,0.00
2023-01-06T04:34:40.930Z,0.00
2023-01-06T04:35:41.248Z,0.00
2023-01-06T04:36:41.633Z,0.00
2023-01-06T04:37:41.984Z,0.00
2023-01-06T04:38:42.353Z,0.00
2023-01-06T04:39:42.715Z,0.00
2023-01-06T04:40:43.050Z,0.00
2023-01-06T04:41:43.370Z,0.00
2023-01-06T04:42:43.745Z,0.00
2023-01-06T04:43:44.110Z,0.00
2023-01-06T04:44:44.481Z,0.00
2023-01-06T04:45:44.925Z,0.00
2023-01-06T04:46:45.198Z,0.00
2023-01-06T04:47:45.590Z,0.00
2023-01-06T04:48:45.923Z,0.00
2023-01-06T04:49:46.308Z,0.00
2023-01-06T04:50:46.650Z,0.00
2023-01-06T04:51:46.989Z,0.00
2023-01-06T04:52:47.307Z,0.00
2023-01-06T04:53:47.678Z,0.00
2023-01-06T04:54:48.079Z,0.00
2023-01-06T04:55:48.408Z,0.00
2023-01-06T04:56:48.767Z,0.00
2023-01-06T04:57:49.135Z,0.00
2023-01-06T04:58:49.489Z,0.00
2023-01-06T04:59:49.847Z,0.00
2023-01-06T05:00:50.188Z,0.00
2023-01-06T05:01:50.545Z,0.00
2023-01-06T05:02:50.898Z,0.00
2023-01-06T05:03:51.318Z,0.00
2023-01-06T05:04:51.655Z,0.00
2023-01-06T05:05:51.973Z,0.00
2023-01-06T05:06:52.333Z,0.00
2023-01-06T05:07:52.702Z,0.00
2023-01-06T05:08:53.084Z,0.00
2023-01-06T05:09:53.424Z,0.00
2023-01-06T05:10:53.821Z,0.00
2023-01-06T05:11:54.163Z,0.00
2023-01-06T05:12:54.487Z,0.00
2023-01-06T05:13:54.848Z,0.00
2023-01-06T05:14:55.221Z,0.00
2023-01-06T05:15:55.540Z,0.00
2023-01-06T05:16:55.899Z,0.00
2023-01-06T05:17:56.263Z,0.00
2023-01-06T05:18:56.631Z,0.00
2023-01-06T05:19:57.014Z,0.00
2023-01-06T05:20:57.378Z,0.00
2023-01-06T05:21:57.728Z,0.00
2023-01-06T05:22:58.060Z,0.00
2023-01-06T05:23:58.420Z,0.00
2023-01-06T05:24:58.821Z,0.00
2023-01-06T05:25:59.139Z,0.00
2023-01-06T05:26:59.506Z,0.00
2023-01-06T05:27:59.866Z,0.00
2023-01-06T05:29:00.247Z,0.00
2023-01-06T05:30:00.606Z,0.00
2023-01-06T05:31:00.978Z,0.00
2023-01-06T05:32:01.342Z,0.00
2023-01-06T05:33:01.788Z,0.00
2023-01-06T05:34:02.056Z,0.00
2023-01-06T05:35:02.439Z,0.00
2023-01-06T05:36:02.794Z,0.00
2023-01-06T05:37:03.115Z,0.00
2023-01-06T05:38:03.441Z,0.00
2023-01-06T05:39:03.805Z,0.00
2023-01-06T05:40:04.179Z,0.00
2023-01-06T05:41:04.497Z,0.00
2023-01-06T05:42:04.861Z,0.00
2023-01-06T05:43:05.247Z,0.00
2023-01-06T05:44:05.612Z,0.00
2023-01-06T05:45:05.949Z,0.00
2023-01-06T05:46:06.335Z,0.00
2023-01-06T05:47:06.659Z,0.00
2023-01-06T05:48:06.983Z,0.00
2023-01-06T05:49:07.348Z,0.00
2023-01-06T05:50:07.723Z,0.00
2023-01-06T05:51:08.076Z,0.00
2023-01-06T05:52:08.433Z,0.00
2023-01-06T05:53:08.803Z,0.00
2023-01-06T05:54:09.178Z,0.00
2023-01-06T05:55:09.577Z,0.00
2023-01-06T05:56:09.902Z,0.00
2023-01-06T05:57:10.278Z,0.00
2023-01-06T05:58:10.694Z,0.00
2023-01-06T05:59:10.981Z,0.00
2023-01-06T06:00:11.373Z,0.00
2023-01-06T06:01:11.712Z,0.00
2023-01-06T06:02:12.130Z,0.00
2023-01-06T06:03:12.429Z,0.00
2023-01-06T06:04:12.782Z,0.00
2023-01-06T06:05:13.216Z,0.00
2023-01-06T06:06:13.550Z,0.00
2023-01-06T06:07:13.866Z,0.00
2023-01-06T06:08:14.235Z,0.00
2023-01-06T06:09:14.598Z,0.00
2023-01-06T06:10:15.010Z,0.00
2023-01-06T06:11:15.335Z,0.00
2023-01-06T06:12:15.695Z,0.00
2023-01-06T06:13:16.061Z,0.00
2023-01-06T06:14:17.400Z,0.00
2023-01-06T06:15:16.818Z,0.00
2023-01-06T06:16:17.196Z,0.00
2023-01-06T06:17:17.495Z,0.00
2023-01-06T06:18:17.846Z,0.00
2023-01-06T06:19:18.339Z,0.00
2023-01-06T06:20:18.569Z,0.00
2023-01-06T06:21:18.893Z,0.00
2023-01-06T06:22:19.262Z,0.00
2023-01-06T06:23:19.658Z,0.00
2023-01-06T06:24:19.988Z,0.00
2023-01-06T06:25:20.362Z,0.00
2023-01-06T06:26:20.721Z,0.00
2023-01-06T06:27:21.122Z,0.00
2023-01-06T06:28:21.443Z,0.00
2023-01-06T06:29:21.809Z,0.00
2023-01-06T06:30:22.202Z,0.00
2023-01-06T06:31:22.695Z,0.00
2023-01-06T06:32:22.872Z,0.00
2023-01-06T06:33:23.230Z,0.00
2023-01-06T06:34:23.593Z,0.00
2023-01-06T06:35:23.996Z,0.00
2023-01-06T06:36:24.309Z,0.00
2023-01-06T06:37:24.687Z,0.00
2023-01-06T06:38:25.006Z,0.00
2023-01-06T06:39:25.573Z,0.00
2023-01-06T06:40:25.744Z,0.00
2023-01-06T06:41:26.084Z,0.00
2023-01-06T06:42:26.442Z,0.00
2023-01-06T06:43:26.773Z,0.00
2023-01-06T06:44:27.158Z,0.00
2023-01-06T06:45:27.567Z,0.00
2023-01-06T06:46:27.861Z,0.00
2023-01-06T06:47:28.194Z,0.00
2023-01-06T06:48:28.579Z,0.00
2023-01-06T06:49:28.962Z,0.00
2023-01-06T06:50:29.301Z,0.00
2023-01-06T06:51:29.648Z,0.00
2023-01-06T06:52:29.989Z,0.00
2023-01-06T06:53:30.361Z,0.00
2023-01-06T06:54:30.705Z,0.00
2023-01-06T06:55:31.119Z,0.00
2023-01-06T06:56:31.416Z,0.00
2023-01-06T06:57:31.770Z,0.00
2023-01-06T06:58:32.147Z,0.00
2023-01-06T06:59:32.511Z,0.00
2023-01-06T07:00:32.891Z,0.00
2023-01-06T07:01:33.348Z,0.00
2023-01-06T07:02:33.588Z,0.00
2023-01-06T07:03:33.987Z,0.00
2023-01-06T07:04:34.498Z,0.00
2023-01-06T07:05:34.686Z,0.00
2023-01-06T07:06:35.031Z,0.00
2023-01-06T07:07:35.421Z,0.00
2023-01-06T07:08:35.796Z,0.00
2023-01-06T07:09:36.004Z,1.00
2023-01-06T07:10:36.180Z,2.00
2023-01-06T07:11:36.452Z,2.00
2023-01-06T07:12:36.755Z,3.00
2023-01-06T07:13:36.919Z,4.00
2023-01-06T07:14:37.103Z,3.00
2023-01-06T07:15:37.468Z,4.00
2023-01-06T07:16:37.640Z,6.00
2023-01-06T07:17:37.915Z,7.00
2023-01-06T07:18:38.230Z,5.00
2023-01-06T07:19:38.385Z,7.00
2023-01-06T07:20:38.725Z,6.00
2023-01-06T07:21:39.016Z,10.00
2023-01-06T07:22:39.280Z,11.00
2023-01-06T07:23:39.576Z,17.00
2023-01-06T07:24:39.880Z,19.00
2023-01-06T07:25:40.152Z,22.00
2023-01-06T07:26:40.307Z,22.00
2023-01-06T07:27:40.479Z,22.00
2023-01-06T07:28:40.762Z,22.00
2023-01-06T07:29:41.051Z,22.00
2023-01-06T07:30:41.392Z,23.00
2023-01-06T07:31:41.501Z,26.00
2023-01-06T07:32:41.660Z,28.00
2023-01-06T07:33:41.961Z,30.00
2023-01-06T07:34:42.131Z,34.00
2023-01-06T07:35:42.429Z,39.00
2023-01-06T07:36:42.727Z,43.00
2023-01-06T07:37:43.014Z,44.00
2023-01-06T07:38:43.305Z,47.00
2023-01-06T07:39:43.582Z,56.00
2023-01-06T07:40:43.888Z,65.00
2023-01-06T07:41:44.166Z,69.00
2023-01-06T07:42:44.441Z,52.00
2023-01-06T07:43:44.614Z,47.00
2023-01-06T07:44:44.898Z,60.00
2023-01-06T07:45:45.131Z,71.00
2023-01-06T07:46:45.382Z,75.00
2023-01-06T07:47:45.677Z,83.00
2023-01-06T07:48:45.941Z,90.00
2023-01-06T07:49:46.236Z,92.00
2023-01-06T07:50:46.557Z,72.00
2023-01-06T07:51:46.851Z,77.00
2023-01-06T07:52:47.104Z,68.00
2023-01-06T07:53:47.385Z,81.00
2023-01-06T07:54:47.709Z,100.00
2023-01-06T07:55:47.883Z,130.00
2023-01-06T07:56:48.117Z,120.00
2023-01-06T07:57:48.290Z,113.00
2023-01-06T07:58:48.466Z,120.00
2023-01-06T07:59:48.631Z,122.00
2023-01-06T08:00:48.972Z,129.00
2023-01-06T08:01:49.278Z,126.00
2023-01-06T08:02:49.315Z,125.00
2023-01-06T08:03:49.451Z,121.00
2023-01-06T08:04:49.621Z,142.00
2023-01-06T08:05:49.810Z,152.00
2023-01-06T08:06:49.981Z,167.00
2023-01-06T08:07:50.270Z,161.00
2023-01-06T08:08:50.560Z,155.00
2023-01-06T08:09:50.740Z,171.00
2023-01-06T08:10:51.044Z,210.00
2023-01-06T08:11:51.337Z,218.00
2023-01-06T08:12:51.644Z,221.00
2023-01-06T08:13:51.846Z,221.00
2023-01-06T08:14:52.026Z,233.00
2023-01-06T08:15:52.325Z,295.00
2023-01-06T08:16:52.383Z,333.00
2023-01-06T08:17:52.662Z,312.00
2023-01-06T08:18:52.836Z,334.00
2023-01-06T08:19:53.007Z,365.00
2023-01-06T08:20:53.214Z,366.00
2023-01-06T08:21:53.481Z,435.00
2023-01-06T08:22:53.788Z,492.00
2023-01-06T08:23:54.094Z,494.00
2023-01-06T08:24:54.256Z,435.00
2023-01-06T08:25:54.445Z,369.00
2023-01-06T08:26:54.739Z,330.00
2023-01-06T08:27:54.900Z,356.00
2023-01-06T08:28:55.089Z,301.00
2023-01-06T08:29:55.394Z,283.00
2023-01-06T08:30:56.106Z,328.00
2023-01-06T08:32:09.253Z,388.00
2023-01-06T08:32:56.055Z,409.00
2023-01-06T08:33:56.223Z,487.00
2023-01-06T08:34:56.388Z,501.00
2023-01-06T08:35:56.725Z,516.00
2023-01-06T08:36:56.884Z,510.00
2023-01-06T08:37:57.156Z,475.00
2023-01-06T08:38:57.341Z,505.00
2023-01-06T08:39:57.533Z,580.00
2023-01-06T08:40:57.840Z,687.00
2023-01-06T08:41:57.991Z,816.00
2023-01-06T08:42:58.296Z,958.00
2023-01-06T08:43:58.480Z,884.00
2023-01-06T08:44:58.655Z,855.00
2023-01-06T08:45:58.906Z,890.00
2023-01-06T08:46:59.135Z,883.00
2023-01-06T08:47:59.303Z,938.00
2023-01-06T08:48:59.504Z,972.00
2023-01-06T08:49:59.802Z,965.00
2023-01-06T08:50:59.996Z,776.00
2023-01-06T08:52:00.285Z,718.00
2023-01-06T08:53:00.456Z,816.00
2023-01-06T08:54:00.619Z,711.00
2023-01-06T08:55:00.847Z,776.00
2023-01-06T08:56:01.030Z,699.00
2023-01-06T08:57:01.289Z,629.00
2023-01-06T08:58:01.445Z,550.00
2023-01-06T08:59:01.631Z,722.00
2023-01-06T09:00:01.834Z,880.00
2023-01-06T09:01:01.989Z,840.00
2023-01-06T09:02:02.293Z,703.00
2023-01-06T09:03:02.325Z,564.00
2023-01-06T09:04:02.601Z,658.00
2023-01-06T09:05:02.806Z,886.00
2023-01-06T09:06:03.126Z,917.00
2023-01-06T09:07:03.284Z,1098.00
2023-01-06T09:08:03.457Z,1297.00
2023-01-06T09:09:03.687Z,1334.00
2023-01-06T09:10:03.818Z,1363.00
2023-01-06T09:11:04.038Z,1544.00
2023-01-06T09:12:04.248Z,1564.00
2023-01-06T09:13:04.394Z,1730.00
2023-01-06T09:14:04.581Z,1801.00
2023-01-06T09:15:04.766Z,1996.00
2023-01-06T09:16:05.011Z,2003.00
2023-01-06T09:17:05.155Z,1525.00
2023-01-06T09:18:05.335Z,1359.00
2023-01-06T09:19:05.518Z,1299.00
2023-01-06T09:20:05.694Z,974.00
2023-01-06T09:21:05.889Z,692.00
2023-01-06T09:22:06.022Z,678.00
2023-01-06T09:23:06.353Z,645.00
2023-01-06T09:24:06.490Z,804.00
2023-01-06T09:25:06.683Z,884.00
2023-01-06T09:26:07.026Z,974.00
2023-01-06T09:27:07.184Z,1108.00
2023-01-06T09:28:07.435Z,881.00
2023-01-06T09:29:07.707Z,839.00
2023-01-06T09:30:08.005Z,648.00
2023-01-06T09:31:08.322Z,580.00
2023-01-06T09:32:08.586Z,616.00
2023-01-06T09:33:08.764Z,540.00
2023-01-06T09:34:08.914Z,766.00
2023-01-06T09:35:09.121Z,676.00
2023-01-06T09:36:09.318Z,713.00
2023-01-06T09:37:09.506Z,816.00
2023-01-06T09:38:09.636Z,583.00
2023-01-06T09:39:09.810Z,380.00
2023-01-06T09:40:09.964Z,290.00
2023-01-06T09:41:10.159Z,300.00
2023-01-06T09:42:10.434Z,366.00
2023-01-06T09:43:10.593Z,330.00
2023-01-06T09:44:10.902Z,270.00
2023-01-06T09:45:11.059Z,278.00
2023-01-06T09:46:11.273Z,303.00
2023-01-06T09:47:11.539Z,360.00
2023-01-06T09:48:11.737Z,617.00
2023-01-06T09:49:12.032Z,841.00
2023-01-06T09:50:12.209Z,947.00
2023-01-06T09:51:12.384Z,1119.00
2023-01-06T09:52:12.546Z,1049.00
2023-01-06T09:53:12.739Z,811.00
2023-01-06T09:54:12.936Z,1233.00
2023-01-06T09:55:13.234Z,969.00
2023-01-06T09:56:13.497Z,486.00
2023-01-06T09:57:13.573Z,838.00
2023-01-06T09:58:13.731Z,811.00
2023-01-06T09:59:13.909Z,1473.00
2023-01-06T10:00:14.112Z,1550.00
2023-01-06T10:01:14.292Z,940.00
2023-01-06T10:02:14.464Z,1139.00
2023-01-06T10:03:14.622Z,1629.00
2023-01-06T10:04:14.829Z,1595.00
2023-01-06T10:05:14.988Z,1609.00
2023-01-06T10:06:17.193Z,1601.00
2023-01-06T10:07:15.358Z,1923.00
2023-01-06T10:08:15.537Z,2185.00
2023-01-06T10:09:15.728Z,1596.00
2023-01-06T10:10:15.912Z,1035.00
2023-01-06T10:11:16.099Z,705.00
2023-01-06T10:12:16.259Z,684.00
2023-01-06T10:13:16.428Z,912.00
2023-01-06T10:14:16.602Z,891.00
2023-01-06T10:15:16.789Z,1277.00
2023-01-06T10:16:17.041Z,1366.00
2023-01-06T10:17:17.160Z,1100.00
2023-01-06T10:18:17.315Z,1030.00
2023-01-06T10:19:17.528Z,1160.00
2023-01-06T10:20:17.662Z,1167.00
2023-01-06T10:21:17.851Z,1481.00
2023-01-06T10:22:18.032Z,1815.00
2023-01-06T10:23:18.219Z,1385.00
2023-01-06T10:24:18.379Z,1144.00
2023-01-06T10:25:18.694Z,1067.00
2023-01-06T10:26:18.922Z,1030.00
2023-01-06T10:27:19.057Z,1357.00
2023-01-06T10:28:19.241Z,1352.00
2023-01-06T10:29:19.475Z,1459.00
2023-01-06T10:30:19.725Z,1608.00
2023-01-06T10:31:19.873Z,1909.00
2023-01-06T10:32:19.963Z,1502.00
2023-01-06T10:33:20.141Z,1591.00
2023-01-06T10:34:20.319Z,1489.00
2023-01-06T10:35:20.499Z,1317.00
2023-01-06T10:36:20.694Z,1409.00
2023-01-06T10:37:20.908Z,1134.00
2023-01-06T10:38:21.092Z,901.00
2023-01-06T10:39:21.238Z,822.00
2023-01-06T10:40:21.435Z,1071.00
2023-01-06T10:41:21.649Z,1056.00
2023-01-06T10:42:21.814Z,1357.00
2023-01-06T10:43:21.967Z,1297.00
2023-01-06T10:44:22.164Z,1428.00
2023-01-06T10:45:23.008Z,1529.00
2023-01-06T10:46:22.594Z,1634.00
2023-01-06T10:47:22.716Z,1583.00
2023-01-06T10:48:22.950Z,1798.00
2023-01-06T10:49:23.090Z,1855.00
2023-01-06T10:50:23.281Z,1740.00
2023-01-06T10:51:23.485Z,1635.00
2023-01-06T10:52:23.637Z,1334.00
2023-01-06T10:53:23.824Z,1448.00
2023-01-06T10:54:23.995Z,1701.00
2023-01-06T10:55:24.180Z,1654.00
2023-01-06T10:56:24.407Z,1190.00
2023-01-06T10:57:24.529Z,1123.00
2023-01-06T10:58:24.835Z,1149.00
2023-01-06T10:59:24.930Z,1260.00
2023-01-06T11:00:25.104Z,1538.00
2023-01-06T11:01:25.506Z,1324.00
2023-01-06T11:02:25.555Z,889.00
2023-01-06T11:03:33.161Z,531.00
2023-01-06T11:04:25.840Z,402.00
2023-01-06T11:05:26.048Z,435.00
2023-01-06T11:06:26.228Z,433.00
2023-01-06T11:07:26.442Z,546.00
2023-01-06T11:08:26.581Z,743.00
2023-01-06T11:09:26.876Z,1294.00
2023-01-06T11:10:27.047Z,1420.00
2023-01-06T11:11:28.972Z,1693.00
2023-01-06T11:12:27.407Z,1747.00
2023-01-06T11:13:27.631Z,1831.00
2023-01-06T11:14:27.823Z,1723.00
2023-01-06T11:15:27.973Z,2177.00
2023-01-06T11:16:28.227Z,2412.00
2023-01-06T11:17:28.348Z,2421.00
2023-01-06T11:18:28.534Z,2690.00
2023-01-06T11:19:28.707Z,3202.00
2023-01-06T11:20:28.892Z,3225.00
2023-01-06T11:21:29.106Z,3581.00
2023-01-06T11:23:29.431Z,3647.00
2023-01-06T11:24:29.606Z,9676.00
2023-01-06T11:25:29.805Z,9251.00
2023-01-06T11:26:30.022Z,7969.00
2023-01-06T11:27:30.162Z,7749.00
2023-01-06T11:28:30.371Z,7690.00
2023-01-06T11:29:30.581Z,7615.00
2023-01-06T11:30:30.747Z,7245.00
2023-01-06T11:31:30.997Z,7202.00
2023-01-06T11:32:31.129Z,7399.00
2023-01-06T11:33:31.313Z,7916.00
2023-01-06T11:34:31.520Z,8410.00
2023-01-06T11:35:31.706Z,10025.00
2023-01-06T11:36:31.914Z,10399.00
2023-01-06T11:37:32.069Z,10281.00
2023-01-06T11:38:32.261Z,9602.00
2023-01-06T11:39:32.457Z,9651.00
2023-01-06T11:40:32.647Z,9647.00
2023-01-06T11:41:32.832Z,9676.00
2023-01-06T11:42:32.997Z,9877.00
2023-01-06T11:43:33.198Z,9158.00
2023-01-06T11:44:33.372Z,9778.00
2023-01-06T11:45:33.598Z,3668.00
2023-01-06T11:46:33.766Z,6045.00
2023-01-06T11:47:33.905Z,9243.00
2023-01-06T11:48:34.087Z,9394.00
2023-01-06T11:49:34.261Z,9080.00
2023-01-06T11:50:34.462Z,8958.00
2023-01-06T11:51:34.654Z,8662.00
2023-01-06T11:52:34.831Z,8620.00
2023-01-06T11:53:35.000Z,8381.00
2023-01-06T11:54:35.224Z,8666.00
2023-01-06T11:55:35.387Z,8076.00
2023-01-06T11:56:35.615Z,8581.00
2023-01-06T11:57:35.769Z,8560.00
2023-01-06T11:58:35.953Z,8625.00
2023-01-06T11:59:36.165Z,8743.00
2023-01-06T12:00:36.354Z,8325.00
2023-01-06T12:01:36.654Z,8378.00
2023-01-06T12:02:36.731Z,8677.00
2023-01-06T12:03:37.022Z,9047.00
2023-01-06T12:04:37.099Z,9108.00
2023-01-06T12:05:37.302Z,8551.00
2023-01-06T12:06:37.534Z,8081.00
2023-01-06T12:07:37.728Z,7988.00
2023-01-06T12:08:37.887Z,8058.00
2023-01-06T12:09:38.084Z,8064.00
2023-01-06T12:10:38.270Z,8182.00
2023-01-06T12:11:38.464Z,8169.00
2023-01-06T12:12:38.673Z,8212.00
2023-01-06T12:13:44.232Z,7650.00
2023-01-06T12:14:39.009Z,7932.00
2023-01-06T12:15:39.217Z,7594.00
2023-01-06T12:16:39.557Z,8038.00
2023-01-06T12:17:39.859Z,8467.00
2023-01-06T12:18:39.718Z,7706.00
2023-01-06T12:19:39.933Z,7534.00
2023-01-06T12:20:40.091Z,7874.00
2023-01-06T12:21:40.296Z,7162.00
2023-01-06T12:22:40.490Z,6058.00
2023-01-06T12:23:40.677Z,4504.00
2023-01-06T12:24:40.843Z,3364.00
2023-01-06T12:25:41.039Z,2913.00
2023-01-06T12:26:41.278Z,2811.00
2023-01-06T12:27:41.466Z,2804.00
2023-01-06T12:28:41.576Z,2855.00
2023-01-06T12:29:41.761Z,3410.00
2023-01-06T12:30:41.980Z,4855.00
2023-01-06T12:31:42.140Z,5766.00
2023-01-06T12:32:42.319Z,6340.00
2023-01-06T12:33:42.494Z,7094.00
2023-01-06T12:34:42.667Z,6970.00
2023-01-06T12:35:42.848Z,7030.00
2023-01-06T12:36:43.051Z,6684.00
2023-01-06T12:37:43.257Z,7035.00
2023-01-06T12:38:43.426Z,7019.00
2023-01-06T12:39:43.597Z,7016.00
2023-01-06T12:40:43.793Z,7094.00
2023-01-06T12:41:43.970Z,6727.00
2023-01-06T12:42:44.147Z,6658.00
2023-01-06T12:43:44.327Z,6658.00
2023-01-06T12:44:44.489Z,6852.00
2023-01-06T12:45:49.790Z,6574.00
2023-01-06T12:46:45.049Z,6172.00
2023-01-06T12:47:45.033Z,6273.00
2023-01-06T12:48:45.260Z,6203.00
2023-01-06T12:49:45.418Z,6168.00
2023-01-06T12:50:45.623Z,2998.00
2023-01-06T12:51:45.783Z,5006.00
2023-01-06T12:52:45.965Z,4656.00
2023-01-06T12:53:46.166Z,4370.00
2023-01-06T12:54:46.338Z,4571.00
2023-01-06T12:55:46.513Z,4435.00